sensor_id;sensor_type;location;lat;lon;timestamp;temperature;humidity
24408;DHT22;12542;50.924;4.516;2023-02-22T00:00:42;6.90;99.90
24408;DHT22;12542;50.924;4.516;2023-02-22T00:03:19;6.90;99.90
24408;DHT22;12542;50.924;4.516;2023-02-22T00:05:54;6.80;99.90
24408;DHT22;12542;50.924;4.516;2023-02-22T00:08:24;6.90;99.90
24408;DHT22;12542;50.924;4.516;2023-02-22T00:10:50;6.80;99.90
24408;DHT22;12542;50.924;4.516;2023-02-22T00:13:16;6.90;99.90
24408;DHT22;12542;50.924;4.516;2023-02-22T00:15:42;7.00;99.90
24408;DHT22;12542;50.924;4.516;2023-02-22T00:18:12;7.00;99.90
24408;DHT22;12542;50.924;4.516;2023-02-22T00:20:39;6.70;99.90
24408;DHT22;12542;50.924;4.516;2023-02-22T00:23:06;6.60;99.90
24408;DHT22;12542;50.924;4.516;2023-02-22T00:25:33;6.60;99.90
24408;DHT22;12542;50.924;4.516;2023-02-22T00:28:01;6.60;99.90
24408;DHT22;12542;50.924;4.516;2023-02-22T00:30:28;6.40;99.90
24408;DHT22;12542;50.924;4.516;2023-02-22T00:32:57;6.50;99.90
24408;DHT22;12542;50.924;4.516;2023-02-22T00:35:28;6.20;99.90
24408;DHT22;12542;50.924;4.516;2023-02-22T00:37:59;6.30;99.90
24408;DHT22;12542;50.924;4.516;2023-02-22T00:40:32;6.30;99.90
24408;DHT22;12542;50.924;4.516;2023-02-22T00:43:00;6.20;99.90
24408;DHT22;12542;50.924;4.516;2023-02-22T00:45:27;6.30;99.90
24408;DHT22;12542;50.924;4.516;2023-02-22T00:47:54;6.10;99.90
24408;DHT22;12542;50.924;4.516;2023-02-22T00:50:22;6.30;99.90
24408;DHT22;12542;50.924;4.516;2023-02-22T00:52:48;6.30;99.90
24408;DHT22;12542;50.924;4.516;2023-02-22T00:55:20;6.10;99.90
24408;DHT22;12542;50.924;4.516;2023-02-22T00:57:46;6.00;99.90
24408;DHT22;12542;50.924;4.516;2023-02-22T01:00:19;6.00;99.90
24408;DHT22;12542;50.924;4.516;2023-02-22T01:02:45;6.10;99.90
24408;DHT22;12542;50.924;4.516;2023-02-22T01:05:14;6.00;99.90
24408;DHT22;12542;50.924;4.516;2023-02-22T01:07:41;6.00;99.90
24408;DHT22;12542;50.924;4.516;2023-02-22T01:10:08;6.10;99.90
24408;DHT22;12542;50.924;4.516;2023-02-22T01:12:34;6.00;99.90
24408;DHT22;12542;50.924;4.516;2023-02-22T01:15:05;5.90;99.90
24408;DHT22;12542;50.924;4.516;2023-02-22T01:17:35;6.10;99.90
24408;DHT22;12542;50.924;4.516;2023-02-22T01:20:02;6.00;99.90
24408;DHT22;12542;50.924;4.516;2023-02-22T01:22:29;6.00;99.90
24408;DHT22;12542;50.924;4.516;2023-02-22T01:24:54;5.90;99.90
24408;DHT22;12542;50.924;4.516;2023-02-22T01:27:20;5.80;99.90
24408;DHT22;12542;50.924;4.516;2023-02-22T01:29:48;5.80;99.90
24408;DHT22;12542;50.924;4.516;2023-02-22T01:32:14;5.70;99.90
24408;DHT22;12542;50.924;4.516;2023-02-22T01:34:40;5.70;99.90
24408;DHT22;12542;50.924;4.516;2023-02-22T01:37:07;5.80;99.90
24408;DHT22;12542;50.924;4.516;2023-02-22T01:39:35;5.90;99.90
24408;DHT22;12542;50.924;4.516;2023-02-22T01:42:00;5.70;99.90
24408;DHT22;12542;50.924;4.516;2023-02-22T01:44:35;5.70;99.90
24408;DHT22;12542;50.924;4.516;2023-02-22T01:47:04;5.90;99.90
24408;DHT22;12542;50.924;4.516;2023-02-22T01:49:43;5.80;99.90
24408;DHT22;12542;50.924;4.516;2023-02-22T01:52:15;5.80;99.90
24408;DHT22;12542;50.924;4.516;2023-02-22T01:54:46;5.70;99.90
24408;DHT22;12542;50.924;4.516;2023-02-22T01:57:19;5.70;99.90
24408;DHT22;12542;50.924;4.516;2023-02-22T01:59:52;5.70;99.90
24408;DHT22;12542;50.924;4.516;2023-02-22T02:02:19;5.70;99.90
24408;DHT22;12542;50.924;4.516;2023-02-22T02:04:47;5.80;99.90
24408;DHT22;12542;50.924;4.516;2023-02-22T02:07:14;6.00;99.90
24408;DHT22;12542;50.924;4.516;2023-02-22T02:09:59;5.90;99.90
24408;DHT22;12542;50.924;4.516;2023-02-22T02:12:28;5.90;99.90
24408;DHT22;12542;50.924;4.516;2023-02-22T02:15:19;5.80;99.90
24408;DHT22;12542;50.924;4.516;2023-02-22T02:17:46;5.80;99.90
24408;DHT22;12542;50.924;4.516;2023-02-22T02:31:25;5.80;99.90
24408;DHT22;12542;50.924;4.516;2023-02-22T02:34:17;5.70;99.90
24408;DHT22;12542;50.924;4.516;2023-02-22T02:39:34;5.70;99.90
24408;DHT22;12542;50.924;4.516;2023-02-22T02:42:06;5.70;99.90
24408;DHT22;12542;50.924;4.516;2023-02-22T02:47:13;5.80;99.90
24408;DHT22;12542;50.924;4.516;2023-02-22T02:50:02;5.80;99.90
24408;DHT22;12542;50.924;4.516;2023-02-22T02:52:31;5.80;99.90
24408;DHT22;12542;50.924;4.516;2023-02-22T02:54:58;5.60;99.90
24408;DHT22;12542;50.924;4.516;2023-02-22T02:57:25;5.50;99.90
24408;DHT22;12542;50.924;4.516;2023-02-22T02:59:52;5.30;99.90
24408;DHT22;12542;50.924;4.516;2023-02-22T03:02:32;5.30;99.90
24408;DHT22;12542;50.924;4.516;2023-02-22T03:11:44;5.10;99.90
24408;DHT22;12542;50.924;4.516;2023-02-22T03:14:56;5.00;99.90
24408;DHT22;12542;50.924;4.516;2023-02-22T03:19:46;5.20;99.90
24408;DHT22;12542;50.924;4.516;2023-02-22T03:22:36;4.90;99.90
24408;DHT22;12542;50.924;4.516;2023-02-22T03:25:31;5.00;99.90
24408;DHT22;12542;50.924;4.516;2023-02-22T03:28:05;5.00;99.90
24408;DHT22;12542;50.924;4.516;2023-02-22T03:33:40;4.70;99.90
24408;DHT22;12542;50.924;4.516;2023-02-22T03:36:20;4.80;99.90
24408;DHT22;12542;50.924;4.516;2023-02-22T03:38:51;4.80;99.90
24408;DHT22;12542;50.924;4.516;2023-02-22T03:41:22;4.70;99.90
24408;DHT22;12542;50.924;4.516;2023-02-22T03:43:57;4.80;99.90
24408;DHT22;12542;50.924;4.516;2023-02-22T03:46:29;4.80;99.90
24408;DHT22;12542;50.924;4.516;2023-02-22T03:49:08;4.90;99.90
24408;DHT22;12542;50.924;4.516;2023-02-22T03:51:35;4.70;99.90
24408;DHT22;12542;50.924;4.516;2023-02-22T03:54:02;4.80;99.90
24408;DHT22;12542;50.924;4.516;2023-02-22T03:56:32;4.70;99.90
24408;DHT22;12542;50.924;4.516;2023-02-22T03:59:08;4.70;99.90
24408;DHT22;12542;50.924;4.516;2023-02-22T04:01:34;4.70;99.90
24408;DHT22;12542;50.924;4.516;2023-02-22T04:04:01;4.60;99.90
24408;DHT22;12542;50.924;4.516;2023-02-22T04:06:27;4.50;99.90
24408;DHT22;12542;50.924;4.516;2023-02-22T04:08:53;4.50;99.90
24408;DHT22;12542;50.924;4.516;2023-02-22T04:11:19;4.60;99.90
24408;DHT22;12542;50.924;4.516;2023-02-22T04:13:47;4.50;99.90
24408;DHT22;12542;50.924;4.516;2023-02-22T04:16:15;4.60;99.90
24408;DHT22;12542;50.924;4.516;2023-02-22T04:18:41;4.50;99.90
24408;DHT22;12542;50.924;4.516;2023-02-22T04:21:06;4.60;99.90
24408;DHT22;12542;50.924;4.516;2023-02-22T04:23:33;4.50;99.90
24408;DHT22;12542;50.924;4.516;2023-02-22T04:29:31;4.50;99.90
24408;DHT22;12542;50.924;4.516;2023-02-22T04:31:57;4.40;99.90
24408;DHT22;12542;50.924;4.516;2023-02-22T04:34:23;4.50;99.90
24408;DHT22;12542;50.924;4.516;2023-02-22T04:36:50;4.60;99.90
24408;DHT22;12542;50.924;4.516;2023-02-22T04:39:15;4.50;99.90
24408;DHT22;12542;50.924;4.516;2023-02-22T04:41:41;4.40;99.90
24408;DHT22;12542;50.924;4.516;2023-02-22T04:44:07;4.40;99.90
24408;DHT22;12542;50.924;4.516;2023-02-22T04:46:33;4.50;99.90
24408;DHT22;12542;50.924;4.516;2023-02-22T04:48:58;4.60;99.90
24408;DHT22;12542;50.924;4.516;2023-02-22T04:51:24;4.80;99.90
24408;DHT22;12542;50.924;4.516;2023-02-22T04:53:50;4.60;99.90
24408;DHT22;12542;50.924;4.516;2023-02-22T04:56:17;4.50;99.90
24408;DHT22;12542;50.924;4.516;2023-02-22T04:58:42;4.50;99.90
24408;DHT22;12542;50.924;4.516;2023-02-22T05:01:08;4.60;99.90
24408;DHT22;12542;50.924;4.516;2023-02-22T05:03:36;4.50;99.90
24408;DHT22;12542;50.924;4.516;2023-02-22T05:06:02;4.50;99.90
24408;DHT22;12542;50.924;4.516;2023-02-22T05:08:31;4.70;99.90
24408;DHT22;12542;50.924;4.516;2023-02-22T05:10:57;4.80;99.90
24408;DHT22;12542;50.924;4.516;2023-02-22T05:13:25;5.00;99.90
24408;DHT22;12542;50.924;4.516;2023-02-22T05:15:51;4.90;99.90
24408;DHT22;12542;50.924;4.516;2023-02-22T05:18:17;4.70;99.90
24408;DHT22;12542;50.924;4.516;2023-02-22T05:20:45;4.60;99.90
24408;DHT22;12542;50.924;4.516;2023-02-22T05:23:13;4.70;99.90
24408;DHT22;12542;50.924;4.516;2023-02-22T05:25:39;4.70;99.90
24408;DHT22;12542;50.924;4.516;2023-02-22T05:28:11;4.80;99.90
24408;DHT22;12542;50.924;4.516;2023-02-22T05:30:37;4.80;99.90
24408;DHT22;12542;50.924;4.516;2023-02-22T05:33:07;4.80;99.90
24408;DHT22;12542;50.924;4.516;2023-02-22T05:35:33;4.90;99.90
24408;DHT22;12542;50.924;4.516;2023-02-22T05:37:58;4.70;99.90
24408;DHT22;12542;50.924;4.516;2023-02-22T05:40:28;4.70;99.90
24408;DHT22;12542;50.924;4.516;2023-02-22T05:42:54;4.70;99.90
24408;DHT22;12542;50.924;4.516;2023-02-22T05:45:25;4.80;99.90
24408;DHT22;12542;50.924;4.516;2023-02-22T05:47:52;4.70;99.90
24408;DHT22;12542;50.924;4.516;2023-02-22T05:50:19;4.70;99.90
24408;DHT22;12542;50.924;4.516;2023-02-22T05:52:46;4.80;99.90
24408;DHT22;12542;50.924;4.516;2023-02-22T05:55:15;4.70;99.90
24408;DHT22;12542;50.924;4.516;2023-02-22T05:57:41;4.70;99.90
24408;DHT22;12542;50.924;4.516;2023-02-22T06:00:07;4.70;99.90
24408;DHT22;12542;50.924;4.516;2023-02-22T06:02:33;4.70;99.90
24408;DHT22;12542;50.924;4.516;2023-02-22T06:04:59;4.60;99.90
24408;DHT22;12542;50.924;4.516;2023-02-22T06:07:25;4.70;99.90
24408;DHT22;12542;50.924;4.516;2023-02-22T06:09:51;4.70;99.90
24408;DHT22;12542;50.924;4.516;2023-02-22T06:12:18;4.60;99.90
24408;DHT22;12542;50.924;4.516;2023-02-22T06:14:43;4.80;99.90
24408;DHT22;12542;50.924;4.516;2023-02-22T06:17:14;5.00;99.90
24408;DHT22;12542;50.924;4.516;2023-02-22T06:19:39;5.00;99.90
24408;DHT22;12542;50.924;4.516;2023-02-22T06:22:06;5.20;99.90
24408;DHT22;12542;50.924;4.516;2023-02-22T06:24:32;5.40;99.90
24408;DHT22;12542;50.924;4.516;2023-02-22T06:27:00;5.30;99.90
24408;DHT22;12542;50.924;4.516;2023-02-22T06:29:27;5.20;99.90
24408;DHT22;12542;50.924;4.516;2023-02-22T06:31:54;5.10;99.90
24408;DHT22;12542;50.924;4.516;2023-02-22T06:34:20;5.00;99.90
24408;DHT22;12542;50.924;4.516;2023-02-22T06:36:46;5.00;99.90
24408;DHT22;12542;50.924;4.516;2023-02-22T06:39:14;4.80;99.90
24408;DHT22;12542;50.924;4.516;2023-02-22T06:41:43;4.90;99.90
24408;DHT22;12542;50.924;4.516;2023-02-22T06:44:10;5.00;99.90
24408;DHT22;12542;50.924;4.516;2023-02-22T06:46:36;4.90;99.90
24408;DHT22;12542;50.924;4.516;2023-02-22T06:49:02;5.00;99.90
24408;DHT22;12542;50.924;4.516;2023-02-22T06:51:28;4.90;99.90
24408;DHT22;12542;50.924;4.516;2023-02-22T06:53:55;4.80;99.90
24408;DHT22;12542;50.924;4.516;2023-02-22T06:56:20;4.80;99.90
24408;DHT22;12542;50.924;4.516;2023-02-22T06:58:46;4.90;99.90
24408;DHT22;12542;50.924;4.516;2023-02-22T07:01:13;4.70;99.90
24408;DHT22;12542;50.924;4.516;2023-02-22T07:03:39;4.80;99.90
24408;DHT22;12542;50.924;4.516;2023-02-22T07:06:08;4.90;99.90
24408;DHT22;12542;50.924;4.516;2023-02-22T07:08:35;5.10;99.90
24408;DHT22;12542;50.924;4.516;2023-02-22T07:11:02;5.10;99.90
24408;DHT22;12542;50.924;4.516;2023-02-22T07:13:28;5.10;99.90
24408;DHT22;12542;50.924;4.516;2023-02-22T07:15:54;5.00;99.90
24408;DHT22;12542;50.924;4.516;2023-02-22T07:18:19;5.00;99.90
24408;DHT22;12542;50.924;4.516;2023-02-22T07:20:45;5.40;99.90
24408;DHT22;12542;50.924;4.516;2023-02-22T07:23:15;5.50;99.90
24408;DHT22;12542;50.924;4.516;2023-02-22T07:25:41;5.50;99.90
24408;DHT22;12542;50.924;4.516;2023-02-22T07:28:07;5.70;99.90
24408;DHT22;12542;50.924;4.516;2023-02-22T07:30:35;5.60;99.90
24408;DHT22;12542;50.924;4.516;2023-02-22T07:33:06;5.50;99.90
24408;DHT22;12542;50.924;4.516;2023-02-22T07:35:35;5.30;99.90
24408;DHT22;12542;50.924;4.516;2023-02-22T07:38:02;5.40;99.90
24408;DHT22;12542;50.924;4.516;2023-02-22T07:40:28;5.50;99.90
24408;DHT22;12542;50.924;4.516;2023-02-22T07:42:59;5.40;99.90
24408;DHT22;12542;50.924;4.516;2023-02-22T07:45:28;5.60;99.90
24408;DHT22;12542;50.924;4.516;2023-02-22T07:47:54;5.60;99.90
24408;DHT22;12542;50.924;4.516;2023-02-22T07:50:21;5.70;99.90
24408;DHT22;12542;50.924;4.516;2023-02-22T07:52:48;5.90;99.90
24408;DHT22;12542;50.924;4.516;2023-02-22T07:55:17;6.00;99.90
24408;DHT22;12542;50.924;4.516;2023-02-22T07:57:45;6.20;99.90
24408;DHT22;12542;50.924;4.516;2023-02-22T08:00:13;6.40;99.90
24408;DHT22;12542;50.924;4.516;2023-02-22T08:02:43;6.70;99.90
24408;DHT22;12542;50.924;4.516;2023-02-22T08:05:10;6.80;99.90
24408;DHT22;12542;50.924;4.516;2023-02-22T08:07:39;7.10;99.90
24408;DHT22;12542;50.924;4.516;2023-02-22T08:10:06;7.30;99.90
24408;DHT22;12542;50.924;4.516;2023-02-22T08:12:33;7.60;99.90
24408;DHT22;12542;50.924;4.516;2023-02-22T08:14:59;7.60;99.90
24408;DHT22;12542;50.924;4.516;2023-02-22T08:17:27;7.60;99.90
24408;DHT22;12542;50.924;4.516;2023-02-22T08:19:53;7.80;99.90
24408;DHT22;12542;50.924;4.516;2023-02-22T08:22:18;8.20;99.90
24408;DHT22;12542;50.924;4.516;2023-02-22T08:24:44;8.50;99.90
24408;DHT22;12542;50.924;4.516;2023-02-22T08:27:10;8.70;99.90
24408;DHT22;12542;50.924;4.516;2023-02-22T08:29:36;8.80;99.90
24408;DHT22;12542;50.924;4.516;2023-02-22T08:32:02;9.00;99.90
24408;DHT22;12542;50.924;4.516;2023-02-22T08:34:28;9.10;99.90
24408;DHT22;12542;50.924;4.516;2023-02-22T08:36:54;9.50;99.90
24408;DHT22;12542;50.924;4.516;2023-02-22T08:39:20;9.60;99.90
24408;DHT22;12542;50.924;4.516;2023-02-22T08:41:46;9.80;99.90
24408;DHT22;12542;50.924;4.516;2023-02-22T08:44:12;9.70;99.90
24408;DHT22;12542;50.924;4.516;2023-02-22T08:46:38;9.90;99.90
24408;DHT22;12542;50.924;4.516;2023-02-22T08:49:04;10.20;99.90
24408;DHT22;12542;50.924;4.516;2023-02-22T08:51:35;10.00;99.90
24408;DHT22;12542;50.924;4.516;2023-02-22T08:54:02;10.00;99.90
24408;DHT22;12542;50.924;4.516;2023-02-22T08:56:28;9.80;99.90
24408;DHT22;12542;50.924;4.516;2023-02-22T08:58:55;9.60;99.90
24408;DHT22;12542;50.924;4.516;2023-02-22T09:01:22;9.80;99.90
24408;DHT22;12542;50.924;4.516;2023-02-22T09:03:49;9.90;99.90
24408;DHT22;12542;50.924;4.516;2023-02-22T09:06:16;10.00;99.90
24408;DHT22;12542;50.924;4.516;2023-02-22T09:08:42;10.10;99.90
24408;DHT22;12542;50.924;4.516;2023-02-22T09:11:07;10.20;99.90
24408;DHT22;12542;50.924;4.516;2023-02-22T09:13:33;10.10;99.90
24408;DHT22;12542;50.924;4.516;2023-02-22T09:15:59;10.30;99.90
24408;DHT22;12542;50.924;4.516;2023-02-22T09:18:26;10.50;99.90
24408;DHT22;12542;50.924;4.516;2023-02-22T09:20:52;10.60;99.90
24408;DHT22;12542;50.924;4.516;2023-02-22T09:23:18;10.70;99.90
24408;DHT22;12542;50.924;4.516;2023-02-22T09:25:46;10.70;99.90
24408;DHT22;12542;50.924;4.516;2023-02-22T09:28:12;10.80;99.90
24408;DHT22;12542;50.924;4.516;2023-02-22T09:30:38;10.80;99.90
24408;DHT22;12542;50.924;4.516;2023-02-22T09:33:15;10.90;99.90
24408;DHT22;12542;50.924;4.516;2023-02-22T09:35:43;11.20;99.90
24408;DHT22;12542;50.924;4.516;2023-02-22T09:38:17;11.30;99.90
24408;DHT22;12542;50.924;4.516;2023-02-22T09:40:49;11.20;99.90
24408;DHT22;12542;50.924;4.516;2023-02-22T09:49:04;11.20;99.90
24408;DHT22;12542;50.924;4.516;2023-02-22T09:57:03;11.10;99.90
24408;DHT22;12542;50.924;4.516;2023-02-22T09:59:37;11.10;99.90
24408;DHT22;12542;50.924;4.516;2023-02-22T10:02:25;11.20;99.90
24408;DHT22;12542;50.924;4.516;2023-02-22T10:07:38;11.30;99.90
24408;DHT22;12542;50.924;4.516;2023-02-22T10:10:05;11.70;99.90
24408;DHT22;12542;50.924;4.516;2023-02-22T10:13:00;11.70;99.90
24408;DHT22;12542;50.924;4.516;2023-02-22T10:15:43;11.60;99.90
24408;DHT22;12542;50.924;4.516;2023-02-22T10:21:10;11.50;99.90
24408;DHT22;12542;50.924;4.516;2023-02-22T10:26:44;11.70;99.90
24408;DHT22;12542;50.924;4.516;2023-02-22T10:31:59;12.20;99.90
24408;DHT22;12542;50.924;4.516;2023-02-22T10:34:30;12.00;99.90
24408;DHT22;12542;50.924;4.516;2023-02-22T10:37:03;12.10;99.90
24408;DHT22;12542;50.924;4.516;2023-02-22T10:39:34;12.00;99.90
24408;DHT22;12542;50.924;4.516;2023-02-22T10:42:04;12.10;99.90
24408;DHT22;12542;50.924;4.516;2023-02-22T10:44:32;12.30;99.90
24408;DHT22;12542;50.924;4.516;2023-02-22T10:47:04;12.50;99.90
24408;DHT22;12542;50.924;4.516;2023-02-22T10:49:36;12.50;99.90
24408;DHT22;12542;50.924;4.516;2023-02-22T10:52:05;12.70;99.90
24408;DHT22;12542;50.924;4.516;2023-02-22T10:54:40;12.60;99.90
24408;DHT22;12542;50.924;4.516;2023-02-22T10:57:07;12.70;99.90
24408;DHT22;12542;50.924;4.516;2023-02-22T10:59:39;13.00;99.90
24408;DHT22;12542;50.924;4.516;2023-02-22T11:07:26;14.00;99.90
24408;DHT22;12542;50.924;4.516;2023-02-22T11:09:58;13.90;99.90
24408;DHT22;12542;50.924;4.516;2023-02-22T11:12:31;14.20;99.90
24408;DHT22;12542;50.924;4.516;2023-02-22T11:17:42;14.60;99.90
24408;DHT22;12542;50.924;4.516;2023-02-22T11:20:27;14.60;99.90
24408;DHT22;12542;50.924;4.516;2023-02-22T11:22:55;14.70;99.90
24408;DHT22;12542;50.924;4.516;2023-02-22T11:25:32;15.00;99.90
24408;DHT22;12542;50.924;4.516;2023-02-22T11:28:14;14.90;99.90
24408;DHT22;12542;50.924;4.516;2023-02-22T11:30:45;15.00;99.90
24408;DHT22;12542;50.924;4.516;2023-02-22T11:33:18;15.00;99.90
24408;DHT22;12542;50.924;4.516;2023-02-22T11:40:43;14.60;99.90
24408;DHT22;12542;50.924;4.516;2023-02-22T11:43:16;14.70;99.90
24408;DHT22;12542;50.924;4.516;2023-02-22T11:48:38;14.50;99.90
24408;DHT22;12542;50.924;4.516;2023-02-22T11:53:47;14.30;99.90
24408;DHT22;12542;50.924;4.516;2023-02-22T11:56:21;14.20;99.90
24408;DHT22;12542;50.924;4.516;2023-02-22T11:58:59;14.20;99.90
24408;DHT22;12542;50.924;4.516;2023-02-22T12:08:23;13.90;99.90
24408;DHT22;12542;50.924;4.516;2023-02-22T12:10:38;14.10;99.90
24408;DHT22;12542;50.924;4.516;2023-02-22T12:13:29;14.00;99.90
24408;DHT22;12542;50.924;4.516;2023-02-22T12:21:25;14.10;99.90
24408;DHT22;12542;50.924;4.516;2023-02-22T12:24:11;14.20;99.90
24408;DHT22;12542;50.924;4.516;2023-02-22T12:31:57;14.30;99.90
24408;DHT22;12542;50.924;4.516;2023-02-22T12:37:16;14.50;99.90
24408;DHT22;12542;50.924;4.516;2023-02-22T12:40:30;14.40;99.90
24408;DHT22;12542;50.924;4.516;2023-02-22T12:45:11;13.90;99.90
24408;DHT22;12542;50.924;4.516;2023-02-22T12:50:28;13.80;99.90
24408;DHT22;12542;50.924;4.516;2023-02-22T12:53:48;13.90;99.90
24408;DHT22;12542;50.924;4.516;2023-02-22T13:01:59;14.30;99.90
24408;DHT22;12542;50.924;4.516;2023-02-22T13:04:28;14.40;99.90
24408;DHT22;12542;50.924;4.516;2023-02-22T13:07:14;14.50;99.90
24408;DHT22;12542;50.924;4.516;2023-02-22T13:21:21;14.40;99.90
24408;DHT22;12542;50.924;4.516;2023-02-22T13:26:38;14.60;99.90
24408;DHT22;12542;50.924;4.516;2023-02-22T13:29:51;14.50;99.90
24408;DHT22;12542;50.924;4.516;2023-02-22T13:34:46;14.30;99.90
24408;DHT22;12542;50.924;4.516;2023-02-22T13:48:17;14.50;99.90
24408;DHT22;12542;50.924;4.516;2023-02-22T13:56:45;14.40;99.90
24408;DHT22;12542;50.924;4.516;2023-02-22T13:59:38;14.20;99.90
24408;DHT22;12542;50.924;4.516;2023-02-22T14:02:05;14.10;99.90
24408;DHT22;12542;50.924;4.516;2023-02-22T14:04:34;13.90;99.90
24408;DHT22;12542;50.924;4.516;2023-02-22T14:09:54;14.10;99.90
24408;DHT22;12542;50.924;4.516;2023-02-22T14:20:20;14.00;99.90
24408;DHT22;12542;50.924;4.516;2023-02-22T14:22:50;14.00;99.90
24408;DHT22;12542;50.924;4.516;2023-02-22T14:25:39;13.90;99.90
24408;DHT22;12542;50.924;4.516;2023-02-22T14:29:26;13.90;99.90
24408;DHT22;12542;50.924;4.516;2023-02-22T14:31:24;13.70;99.90
24408;DHT22;12542;50.924;4.516;2023-02-22T14:41:45;13.90;99.90
24408;DHT22;12542;50.924;4.516;2023-02-22T14:44:18;14.00;99.90
24408;DHT22;12542;50.924;4.516;2023-02-22T14:46:45;13.90;99.90
24408;DHT22;12542;50.924;4.516;2023-02-22T14:49:16;13.80;99.90
24408;DHT22;12542;50.924;4.516;2023-02-22T14:51:49;13.90;99.90
24408;DHT22;12542;50.924;4.516;2023-02-22T14:57:47;13.20;99.90
24408;DHT22;12542;50.924;4.516;2023-02-22T15:00:24;13.10;99.90
24408;DHT22;12542;50.924;4.516;2023-02-22T15:03:00;12.80;99.90
24408;DHT22;12542;50.924;4.516;2023-02-22T15:05:28;12.80;99.90
24408;DHT22;12542;50.924;4.516;2023-02-22T15:08:01;13.00;99.90
24408;DHT22;12542;50.924;4.516;2023-02-22T15:10:39;13.10;99.90
24408;DHT22;12542;50.924;4.516;2023-02-22T15:13:26;13.00;99.90
24408;DHT22;12542;50.924;4.516;2023-02-22T15:15:57;13.00;99.90
24408;DHT22;12542;50.924;4.516;2023-02-22T15:18:44;13.00;99.90
24408;DHT22;12542;50.924;4.516;2023-02-22T15:21:12;12.90;99.90
24408;DHT22;12542;50.924;4.516;2023-02-22T15:23:51;12.90;99.90
24408;DHT22;12542;50.924;4.516;2023-02-22T15:26:40;12.80;99.90
24408;DHT22;12542;50.924;4.516;2023-02-22T15:31:40;12.90;99.90
24408;DHT22;12542;50.924;4.516;2023-02-22T15:36:44;12.80;99.90
24408;DHT22;12542;50.924;4.516;2023-02-22T15:39:43;12.80;99.90
24408;DHT22;12542;50.924;4.516;2023-02-22T15:42:14;12.70;99.90
24408;DHT22;12542;50.924;4.516;2023-02-22T15:44:47;12.60;99.90
24408;DHT22;12542;50.924;4.516;2023-02-22T15:47:24;12.50;99.90
24408;DHT22;12542;50.924;4.516;2023-02-22T15:55:38;12.40;99.90
24408;DHT22;12542;50.924;4.516;2023-02-22T15:58:30;12.20;99.90
24408;DHT22;12542;50.924;4.516;2023-02-22T16:01:04;12.20;99.90
24408;DHT22;12542;50.924;4.516;2023-02-22T16:06:12;12.00;99.90
24408;DHT22;12542;50.924;4.516;2023-02-22T16:08:50;11.80;99.90
24408;DHT22;12542;50.924;4.516;2023-02-22T16:11:26;11.80;99.90
24408;DHT22;12542;50.924;4.516;2023-02-22T16:14:04;11.90;99.90
24408;DHT22;12542;50.924;4.516;2023-02-22T16:16:33;12.00;99.90
24408;DHT22;12542;50.924;4.516;2023-02-22T16:19:36;12.00;99.90
24408;DHT22;12542;50.924;4.516;2023-02-22T16:22:04;12.00;99.90
24408;DHT22;12542;50.924;4.516;2023-02-22T16:24:38;12.00;99.90
24408;DHT22;12542;50.924;4.516;2023-02-22T16:27:24;11.80;99.90
24408;DHT22;12542;50.924;4.516;2023-02-22T16:30:34;11.70;99.90
24408;DHT22;12542;50.924;4.516;2023-02-22T16:32:55;11.70;99.90
24408;DHT22;12542;50.924;4.516;2023-02-22T16:35:24;11.70;99.90
24408;DHT22;12542;50.924;4.516;2023-02-22T16:38:11;11.70;99.90
24408;DHT22;12542;50.924;4.516;2023-02-22T16:40:46;11.70;99.90
24408;DHT22;12542;50.924;4.516;2023-02-22T16:43:18;11.60;99.90
24408;DHT22;12542;50.924;4.516;2023-02-22T16:45:44;11.70;99.90
24408;DHT22;12542;50.924;4.516;2023-02-22T16:48:24;11.70;99.90
24408;DHT22;12542;50.924;4.516;2023-02-22T16:50:52;11.70;99.90
24408;DHT22;12542;50.924;4.516;2023-02-22T16:53:21;11.70;99.90
24408;DHT22;12542;50.924;4.516;2023-02-22T16:55:48;11.70;99.90
24408;DHT22;12542;50.924;4.516;2023-02-22T16:58:16;11.70;99.90
24408;DHT22;12542;50.924;4.516;2023-02-22T17:00:43;11.50;99.90
24408;DHT22;12542;50.924;4.516;2023-02-22T17:03:18;11.50;99.90
24408;DHT22;12542;50.924;4.516;2023-02-22T17:05:45;11.40;99.90
24408;DHT22;12542;50.924;4.516;2023-02-22T17:08:11;11.30;99.90
24408;DHT22;12542;50.924;4.516;2023-02-22T17:10:39;11.30;99.90
24408;DHT22;12542;50.924;4.516;2023-02-22T17:13:05;11.40;99.90
24408;DHT22;12542;50.924;4.516;2023-02-22T17:15:33;11.30;99.90
24408;DHT22;12542;50.924;4.516;2023-02-22T17:18:01;11.40;99.90
24408;DHT22;12542;50.924;4.516;2023-02-22T17:20:30;11.40;99.90
24408;DHT22;12542;50.924;4.516;2023-02-22T17:23:00;11.50;99.90
24408;DHT22;12542;50.924;4.516;2023-02-22T17:25:33;11.40;99.90
24408;DHT22;12542;50.924;4.516;2023-02-22T17:28:01;11.50;99.90
24408;DHT22;12542;50.924;4.516;2023-02-22T17:30:29;11.50;99.90
24408;DHT22;12542;50.924;4.516;2023-02-22T17:32:58;11.60;99.90
24408;DHT22;12542;50.924;4.516;2023-02-22T17:35:33;11.60;99.90
24408;DHT22;12542;50.924;4.516;2023-02-22T17:38:01;11.60;99.90
24408;DHT22;12542;50.924;4.516;2023-02-22T17:40:31;11.60;99.90
24408;DHT22;12542;50.924;4.516;2023-02-22T17:42:57;11.60;99.90
24408;DHT22;12542;50.924;4.516;2023-02-22T17:45:23;11.70;99.90
24408;DHT22;12542;50.924;4.516;2023-02-22T17:47:50;11.70;99.90
24408;DHT22;12542;50.924;4.516;2023-02-22T17:50:17;11.70;99.90
24408;DHT22;12542;50.924;4.516;2023-02-22T17:52:43;11.60;99.90
24408;DHT22;12542;50.924;4.516;2023-02-22T17:55:10;11.60;99.90
24408;DHT22;12542;50.924;4.516;2023-02-22T17:57:37;11.60;99.90
24408;DHT22;12542;50.924;4.516;2023-02-22T18:00:06;11.60;99.90
24408;DHT22;12542;50.924;4.516;2023-02-22T18:02:40;11.60;99.90
24408;DHT22;12542;50.924;4.516;2023-02-22T18:05:11;11.60;99.90
24408;DHT22;12542;50.924;4.516;2023-02-22T18:07:39;11.60;99.90
24408;DHT22;12542;50.924;4.516;2023-02-22T18:10:05;11.60;99.90
24408;DHT22;12542;50.924;4.516;2023-02-22T18:12:37;11.60;99.90
24408;DHT22;12542;50.924;4.516;2023-02-22T18:15:03;11.60;99.90
24408;DHT22;12542;50.924;4.516;2023-02-22T18:17:29;11.60;99.90
24408;DHT22;12542;50.924;4.516;2023-02-22T18:19:55;11.70;99.90
24408;DHT22;12542;50.924;4.516;2023-02-22T18:22:21;11.60;99.90
24408;DHT22;12542;50.924;4.516;2023-02-22T18:24:49;11.70;99.90
24408;DHT22;12542;50.924;4.516;2023-02-22T18:27:15;11.60;99.90
24408;DHT22;12542;50.924;4.516;2023-02-22T18:29:40;11.40;99.90
24408;DHT22;12542;50.924;4.516;2023-02-22T18:32:06;11.00;99.90
24408;DHT22;12542;50.924;4.516;2023-02-22T18:34:38;10.70;99.90
24408;DHT22;12542;50.924;4.516;2023-02-22T18:37:04;10.70;99.90
24408;DHT22;12542;50.924;4.516;2023-02-22T18:39:32;10.60;99.90
24408;DHT22;12542;50.924;4.516;2023-02-22T18:42:05;10.80;99.90
24408;DHT22;12542;50.924;4.516;2023-02-22T18:44:31;11.00;99.90
24408;DHT22;12542;50.924;4.516;2023-02-22T18:46:59;11.10;99.90
24408;DHT22;12542;50.924;4.516;2023-02-22T18:49:24;11.10;99.90
24408;DHT22;12542;50.924;4.516;2023-02-22T18:51:53;10.80;99.90
24408;DHT22;12542;50.924;4.516;2023-02-22T18:54:19;10.70;99.90